Time;durP1;ratioP1;P1;durP2;ratioP2;P2;SDS_P1;SDS_P2;PMS_P1;PMS_P2;Temp;Humidity;BMP_temperature;BMP_pressure;BME280_temperature;BME280_humidity;BME280_pressure;Samples;Min_cycle;Max_cycle;Signal;HPM_P1;HPM_P2
2022/08/26 00:00:50;;;;;;;23.42;8.32;;;;;;;;;;5048964;28;20089;-56
2022/08/26 00:03:17;;;;;;;22.33;7.93;;;;;;;;;;5052541;28;20128;-55
2022/08/26 00:05:44;;;;;;;26.48;8.25;;;;;;;;;;5048493;28;20048;-55
2022/08/26 00:08:11;;;;;;;31.52;8.13;;;;;;;;;;5047916;28;20810;-56
2022/08/26 00:10:38;;;;;;;19.35;7.68;;;;;;;;;;5048444;28;20045;-55
2022/08/26 00:13:05;;;;;;;30.08;7.95;;;;;;;;;;5047754;28;20179;-54
2022/08/26 00:15:34;;;;;;;37.15;8.80;;;;;;;;;;5050956;28;20693;-55
2022/08/26 00:18:00;;;;;;;23.55;6.65;;;;;;;;;;5050336;28;20064;-55
2022/08/26 00:20:28;;;;;;;26.98;8.68;;;;;;;;;;5047911;28;20043;-56
2022/08/26 00:22:56;;;;;;;32.30;8.45;;;;;;;;;;5048005;28;20041;-55
2022/08/26 00:25:23;;;;;;;26.98;7.93;;;;;;;;;;5047842;28;20443;-56
2022/08/26 00:27:50;;;;;;;37.58;7.78;;;;;;;;;;5048136;28;20123;-56
2022/08/26 00:30:19;;;;;;;27.05;8.35;;;;;;;;;;5048014;28;20044;-56
2022/08/26 00:32:49;;;;;;;22.95;6.53;;;;;;;;;;5051702;28;20121;-56
2022/08/26 00:35:16;;;;;;;27.33;8.48;;;;;;;;;;5041601;28;20511;-56
2022/08/26 00:37:43;;;;;;;36.00;8.55;;;;;;;;;;5038478;28;20116;-56
2022/08/26 00:40:14;;;;;;;31.02;8.07;;;;;;;;;;5048128;28;20051;-56
2022/08/26 00:42:41;;;;;;;44.33;10.07;;;;;;;;;;5048905;28;20708;-56
2022/08/26 00:45:11;;;;;;;23.40;7.50;;;;;;;;;;5051259;28;20052;-56
2022/08/26 00:47:51;;;;;;;29.85;8.52;;;;;;;;;;5047210;28;20103;-56
2022/08/26 00:50:20;;;;;;;35.80;8.90;;;;;;;;;;5047386;28;20056;-56
2022/08/26 00:52:47;;;;;;;29.25;8.18;;;;;;;;;;5047614;28;20148;-56
2022/08/26 00:55:18;;;;;;;25.67;8.63;;;;;;;;;;5047184;28;20524;-56
2022/08/26 00:57:48;;;;;;;27.42;7.90;;;;;;;;;;5048058;28;20075;-55
2022/08/26 01:00:23;;;;;;;20.33;7.53;;;;;;;;;;5051069;28;20135;-55
2022/08/26 01:02:49;;;;;;;33.88;8.45;;;;;;;;;;5051460;28;20512;-55
2022/08/26 01:05:17;;;;;;;15.88;7.40;;;;;;;;;;5047168;28;20044;-55
2022/08/26 01:07:44;;;;;;;25.98;8.35;;;;;;;;;;5046933;28;20029;-55
2022/08/26 01:10:14;;;;;;;29.88;8.02;;;;;;;;;;5046950;28;20041;-56
2022/08/26 01:12:44;;;;;;;36.60;8.38;;;;;;;;;;5048929;28;20041;-56
2022/08/26 01:15:14;;;;;;;27.88;8.43;;;;;;;;;;5050107;28;20041;-56
2022/08/26 01:17:40;;;;;;;14.93;6.72;;;;;;;;;;5047155;28;20044;-55
2022/08/26 01:20:15;;;;;;;32.15;8.40;;;;;;;;;;5046972;28;20041;-55
2022/08/26 01:23:02;;;;;;;48.30;9.15;;;;;;;;;;5046947;28;20056;-56
2022/08/26 01:25:30;;;;;;;20.90;8.52;;;;;;;;;;5046966;28;20149;-55
2022/08/26 01:28:00;;;;;;;37.53;8.82;;;;;;;;;;5046310;28;20034;-55
2022/08/26 01:30:28;;;;;;;35.85;8.88;;;;;;;;;;5050793;28;20124;-55
2022/08/26 01:32:56;;;;;;;26.52;7.65;;;;;;;;;;5047889;28;20397;-55
2022/08/26 01:35:23;;;;;;;31.85;9.15;;;;;;;;;;5039687;28;20044;-55
2022/08/26 01:37:52;;;;;;;31.77;7.90;;;;;;;;;;5038388;28;20112;-55
2022/08/26 01:40:22;;;;;;;23.20;7.70;;;;;;;;;;5046873;28;20036;-56
2022/08/26 01:42:49;;;;;;;37.92;8.98;;;;;;;;;;5047114;28;20042;-56
2022/08/26 01:45:18;;;;;;;55.20;10.00;;;;;;;;;;5050239;28;20036;-56
2022/08/26 01:47:46;;;;;;;49.17;9.65;;;;;;;;;;5046424;28;20040;-55
2022/08/26 01:50:15;;;;;;;50.42;10.15;;;;;;;;;;5045630;28;20079;-55
2022/08/26 01:52:54;;;;;;;42.78;10.30;;;;;;;;;;5046441;28;20045;-56
2022/08/26 01:55:23;;;;;;;36.25;9.20;;;;;;;;;;5046565;28;20798;-55
2022/08/26 01:58:00;;;;;;;47.97;9.45;;;;;;;;;;5046014;28;20038;-54
2022/08/26 02:00:27;;;;;;;27.45;8.35;;;;;;;;;;5050455;28;20033;-56
2022/08/26 02:03:15;;;;;;;31.70;8.25;;;;;;;;;;5047155;28;20087;-56
2022/08/26 02:05:53;;;;;;;28.42;7.93;;;;;;;;;;5046231;28;20137;-55
2022/08/26 02:08:40;;;;;;;22.35;6.93;;;;;;;;;;5046586;28;20061;-56
2022/08/26 02:11:07;;;;;;;41.42;9.68;;;;;;;;;;5045981;28;20512;-56
2022/08/26 02:13:36;;;;;;;24.92;7.90;;;;;;;;;;5045728;28;20068;-55
2022/08/26 02:16:03;;;;;;;21.90;8.10;;;;;;;;;;5046677;28;20076;-54
2022/08/26 02:18:34;;;;;;;49.65;9.90;;;;;;;;;;5049284;28;20041;-54
2022/08/26 02:21:01;;;;;;;32.22;8.63;;;;;;;;;;5048090;28;20041;-54
2022/08/26 02:23:32;;;;;;;39.65;8.75;;;;;;;;;;5046090;28;20037;-56
2022/08/26 02:26:08;;;;;;;24.02;6.95;;;;;;;;;;5046371;28;20068;-56
2022/08/26 02:28:38;;;;;;;30.30;8.20;;;;;;;;;;5045573;28;20108;-55
2022/08/26 02:31:05;;;;;;;50.45;9.52;;;;;;;;;;5046036;28;20046;-55
2022/08/26 02:33:33;;;;;;;28.35;7.45;;;;;;;;;;5049063;28;20037;-55
2022/08/26 02:36:01;;;;;;;40.78;14.77;;;;;;;;;;5035720;28;20050;-55
2022/08/26 02:38:28;;;;;;;31.88;9.45;;;;;;;;;;5042964;28;20068;-55
2022/08/26 02:40:55;;;;;;;22.48;7.25;;;;;;;;;;5045852;28;20482;-54
2022/08/26 02:43:21;;;;;;;20.80;7.85;;;;;;;;;;5045472;28;20055;-55
2022/08/26 02:45:57;;;;;;;34.17;9.13;;;;;;;;;;5045873;28;20120;-55
2022/08/26 02:48:27;;;;;;;24.02;7.70;;;;;;;;;;5050272;28;20033;-55
2022/08/26 02:50:53;;;;;;;32.83;9.35;;;;;;;;;;5049355;28;20056;-55
2022/08/26 02:53:20;;;;;;;27.50;8.18;;;;;;;;;;5045984;28;20127;-55
2022/08/26 02:55:50;;;;;;;38.72;10.02;;;;;;;;;;5045607;28;20045;-55
2022/08/26 02:58:17;;;;;;;33.35;9.32;;;;;;;;;;5045556;28;20051;-55
2022/08/26 03:00:45;;;;;;;32.08;9.20;;;;;;;;;;5047783;28;20124;-55
2022/08/26 03:03:19;;;;;;;31.08;8.27;;;;;;;;;;5053507;28;20056;-54
2022/08/26 03:05:49;;;;;;;56.30;10.77;;;;;;;;;;5049228;28;20040;-53
2022/08/26 03:08:15;;;;;;;26.58;8.43;;;;;;;;;;5053646;28;20552;-52
2022/08/26 03:10:42;;;;;;;31.67;7.90;;;;;;;;;;5048912;28;20473;-53
2022/08/26 03:13:08;;;;;;;27.42;8.80;;;;;;;;;;5048945;28;20109;-54
2022/08/26 03:15:35;;;;;;;32.72;9.77;;;;;;;;;;5052936;28;20482;-55
2022/08/26 03:18:03;;;;;;;55.05;23.23;;;;;;;;;;5051106;28;20041;-53
2022/08/26 03:20:29;;;;;;;61.70;11.38;;;;;;;;;;5048864;28;20037;-56
2022/08/26 03:22:56;;;;;;;41.40;9.75;;;;;;;;;;5049130;28;20557;-56
2022/08/26 03:25:24;;;;;;;29.55;9.13;;;;;;;;;;5049116;28;20041;-55
2022/08/26 03:27:51;;;;;;;46.15;10.18;;;;;;;;;;5049466;28;20047;-56
2022/08/26 03:33:11;;;;;;;31.48;9.35;;;;;;;;;;5052165;28;20064;-56
2022/08/26 03:35:38;;;;;;;37.22;8.98;;;;;;;;;;5041411;28;20041;-55
2022/08/26 03:38:08;;;;;;;37.42;9.60;;;;;;;;;;5048721;28;20108;-55
2022/08/26 03:40:35;;;;;;;35.65;9.95;;;;;;;;;;5048586;28;20080;-55
2022/08/26 03:43:03;;;;;;;53.40;23.23;;;;;;;;;;5048440;28;20041;-56
2022/08/26 03:45:31;;;;;;;30.42;10.45;;;;;;;;;;5052356;28;20036;-57
2022/08/26 03:47:58;;;;;;;42.17;10.30;;;;;;;;;;5049470;28;20231;-56
2022/08/26 03:50:25;;;;;;;31.52;9.05;;;;;;;;;;5048645;28;20061;-56
2022/08/26 03:52:52;;;;;;;28.90;8.93;;;;;;;;;;5048216;28;20047;-56
2022/08/26 03:55:22;;;;;;;37.10;9.77;;;;;;;;;;5048150;28;20041;-56
2022/08/26 03:57:49;;;;;;;82.40;11.32;;;;;;;;;;5049360;28;20501;-57
2022/08/26 04:00:16;;;;;;;41.65;8.75;;;;;;;;;;5052426;28;20043;-57
2022/08/26 04:02:44;;;;;;;38.28;9.70;;;;;;;;;;5044307;28;20045;-56
2022/08/26 04:05:12;;;;;;;26.33;8.25;;;;;;;;;;5042770;28;20473;-56
2022/08/26 04:07:39;;;;;;;34.65;8.48;;;;;;;;;;5042754;28;20068;-57
2022/08/26 04:10:07;;;;;;;43.88;9.65;;;;;;;;;;5048089;28;20065;-57
2022/08/26 04:12:36;;;;;;;50.83;10.60;;;;;;;;;;5050571;28;20048;-57
2022/08/26 04:15:06;;;;;;;40.50;9.77;;;;;;;;;;5049785;28;20486;-55
2022/08/26 04:17:33;;;;;;;52.33;14.45;;;;;;;;;;5047967;28;20041;-55
2022/08/26 04:20:01;;;;;;;29.40;9.18;;;;;;;;;;5047907;28;20041;-55
2022/08/26 04:22:27;;;;;;;57.28;11.23;;;;;;;;;;5048989;28;20099;-54
2022/08/26 04:24:54;;;;;;;48.22;12.07;;;;;;;;;;5048323;28;20049;-55
2022/08/26 04:27:21;;;;;;;69.72;11.00;;;;;;;;;;5052160;28;20045;-55
2022/08/26 04:29:48;;;;;;;51.30;11.25;;;;;;;;;;5047439;28;20127;-55
2022/08/26 04:32:20;;;;;;;52.65;11.38;;;;;;;;;;5047594;28;20072;-54
2022/08/26 04:34:46;;;;;;;61.33;10.68;;;;;;;;;;5045776;28;20054;-55
2022/08/26 04:37:14;;;;;;;64.05;12.35;;;;;;;;;;5033783;28;20045;-56
2022/08/26 04:39:41;;;;;;;43.05;9.77;;;;;;;;;;5050199;28;20048;-56
2022/08/26 04:42:09;;;;;;;40.58;10.50;;;;;;;;;;5049973;28;20049;-56
2022/08/26 04:44:36;;;;;;;70.50;11.95;;;;;;;;;;5044202;28;20037;-56
2022/08/26 04:47:04;;;;;;;152.05;17.83;;;;;;;;;;5045963;28;20094;-56
2022/08/26 04:49:31;;;;;;;57.33;10.43;;;;;;;;;;5047449;28;20533;-55
2022/08/26 04:52:01;;;;;;;59.75;10.75;;;;;;;;;;5046914;28;20128;-55
2022/08/26 04:54:28;;;;;;;34.10;9.43;;;;;;;;;;5051951;28;20048;-64
2022/08/26 04:56:54;;;;;;;298.80;23.45;;;;;;;;;;5047162;28;20083;-61
2022/08/26 04:59:21;;;;;;;64.15;11.85;;;;;;;;;;5045690;28;20041;-63
2022/08/26 05:01:50;;;;;;;50.53;9.35;;;;;;;;;;5045891;28;20045;-63
2022/08/26 05:04:17;;;;;;;54.35;9.75;;;;;;;;;;5046503;28;20044;-65
2022/08/26 05:06:45;;;;;;;65.38;11.57;;;;;;;;;;5047598;28;20041;-66
2022/08/26 05:09:13;;;;;;;420.42;33.17;;;;;;;;;;5049330;28;20405;-67
2022/08/26 05:11:40;;;;;;;73.15;10.90;;;;;;;;;;5045236;28;20123;-66
2022/08/26 05:14:07;;;;;;;50.38;9.85;;;;;;;;;;5046505;28;20139;-63
2022/08/26 05:16:33;;;;;;;48.30;10.23;;;;;;;;;;5046649;28;20045;-63
2022/08/26 05:19:02;;;;;;;96.15;12.45;;;;;;;;;;5051303;28;20029;-64
2022/08/26 05:21:28;;;;;;;46.30;9.35;;;;;;;;;;5050843;28;20128;-63
2022/08/26 05:23:55;;;;;;;40.03;8.88;;;;;;;;;;5046600;28;20041;-64
2022/08/26 05:26:23;;;;;;;27.90;8.10;;;;;;;;;;5046904;28;20124;-61
2022/08/26 05:28:52;;;;;;;53.38;8.38;;;;;;;;;;5046322;28;20128;-67
2022/08/26 05:31:22;;;;;;;49.55;8.68;;;;;;;;;;5046421;28;20037;-67
2022/08/26 05:33:49;;;;;;;48.85;9.52;;;;;;;;;;5047996;28;20171;-62
2022/08/26 05:36:18;;;;;;;40.33;8.25;;;;;;;;;;5035471;28;20041;-64
2022/08/26 05:38:45;;;;;;;39.95;9.32;;;;;;;;;;5045367;28;20383;-66
2022/08/26 05:41:13;;;;;;;46.97;14.75;;;;;;;;;;5046485;28;20045;-68
2022/08/26 05:43:42;;;;;;;51.28;9.10;;;;;;;;;;5046175;28;20067;-66
2022/08/26 05:46:09;;;;;;;18.50;7.13;;;;;;;;;;5046560;28;20116;-66
2022/08/26 05:48:36;;;;;;;41.47;8.60;;;;;;;;;;5049376;28;20037;-56
2022/08/26 05:51:05;;;;;;;149.98;18.98;;;;;;;;;;5048004;28;20490;-55
2022/08/26 05:53:31;;;;;;;30.83;6.57;;;;;;;;;;5046663;28;20043;-55
2022/08/26 05:55:58;;;;;;;34.80;7.47;;;;;;;;;;5046111;28;20293;-55
2022/08/26 05:58:25;;;;;;;169.52;16.63;;;;;;;;;;5045998;28;20056;-54
2022/08/26 06:01:00;;;;;;;21.42;6.60;;;;;;;;;;5047215;28;20041;-53
2022/08/26 06:03:28;;;;;;;47.05;9.07;;;;;;;;;;5047070;28;20056;-55
2022/08/26 06:05:55;;;;;;;26.70;6.65;;;;;;;;;;5046502;28;20083;-55
2022/08/26 06:08:22;;;;;;;90.75;10.70;;;;;;;;;;5046049;28;20095;-56
2022/08/26 06:10:51;;;;;;;50.90;9.02;;;;;;;;;;5045508;28;20064;-54
2022/08/26 06:13:28;;;;;;;26.50;6.25;;;;;;;;;;5045926;28;20037;-54
2022/08/26 06:15:58;;;;;;;28.25;7.18;;;;;;;;;;5046481;28;20125;-54
2022/08/26 06:18:29;;;;;;;27.75;6.90;;;;;;;;;;5046424;28;20123;-55
2022/08/26 06:20:56;;;;;;;23.45;5.95;;;;;;;;;;5050177;28;20448;-55
2022/08/26 06:26:09;;;;;;;17.75;6.18;;;;;;;;;;5046103;28;20049;-55
2022/08/26 06:28:36;;;;;;;36.03;8.07;;;;;;;;;;5045362;28;20037;-54
2022/08/26 06:31:04;;;;;;;21.13;6.95;;;;;;;;;;5046135;28;20129;-55
2022/08/26 06:33:31;;;;;;;40.67;9.05;;;;;;;;;;5049839;28;20103;-55
2022/08/26 06:35:59;;;;;;;22.60;6.88;;;;;;;;;;5037291;28;20643;-55
2022/08/26 06:38:26;;;;;;;17.65;5.80;;;;;;;;;;5046240;28;20060;-54
2022/08/26 06:40:56;;;;;;;18.33;5.97;;;;;;;;;;5049939;28;20041;-55
2022/08/26 06:43:26;;;;;;;46.20;9.07;;;;;;;;;;5049053;28;20052;-54
2022/08/26 06:46:01;;;;;;;34.05;8.20;;;;;;;;;;5050672;28;20482;-55
2022/08/26 06:48:30;;;;;;;25.48;7.97;;;;;;;;;;5045512;28;20107;-55
2022/08/26 06:51:20;;;;;;;30.90;7.78;;;;;;;;;;5050303;28;20056;-55
2022/08/26 06:53:50;;;;;;;34.17;7.85;;;;;;;;;;5048064;28;20524;-54
2022/08/26 06:56:18;;;;;;;28.77;7.40;;;;;;;;;;5049369;28;20044;-55
2022/08/26 06:58:45;;;;;;;44.58;9.02;;;;;;;;;;5049108;28;20402;-55
2022/08/26 07:01:19;;;;;;;27.58;7.00;;;;;;;;;;5049722;28;20037;-55
2022/08/26 07:03:47;;;;;;;33.58;7.18;;;;;;;;;;5051297;28;20045;-55
2022/08/26 07:06:14;;;;;;;17.58;6.40;;;;;;;;;;5052484;28;20044;-55
2022/08/26 07:08:41;;;;;;;37.72;8.13;;;;;;;;;;5049033;28;20124;-55
2022/08/26 07:11:09;;;;;;;23.02;6.72;;;;;;;;;;5049214;28;20116;-55
2022/08/26 07:13:36;;;;;;;29.05;7.18;;;;;;;;;;5048993;28;20386;-55
2022/08/26 07:16:07;;;;;;;42.17;8.93;;;;;;;;;;5048902;28;20095;-55
2022/08/26 07:18:35;;;;;;;43.08;8.82;;;;;;;;;;5052759;28;20041;-55
2022/08/26 07:21:05;;;;;;;23.77;6.55;;;;;;;;;;5050592;28;20128;-55
2022/08/26 07:23:33;;;;;;;36.55;7.65;;;;;;;;;;5048594;28;20478;-55
2022/08/26 07:26:06;;;;;;;31.83;7.97;;;;;;;;;;5048689;28;20122;-55
2022/08/26 07:28:33;;;;;;;24.70;6.97;;;;;;;;;;5048538;28;20068;-55
2022/08/26 07:31:04;;;;;;;29.20;6.72;;;;;;;;;;5048206;28;20419;-60
2022/08/26 07:33:35;;;;;;;24.75;6.53;;;;;;;;;;5049239;28;20144;-61
2022/08/26 07:36:02;;;;;;;34.05;7.50;;;;;;;;;;5037684;28;20125;-60
2022/08/26 07:38:30;;;;;;;46.35;7.07;;;;;;;;;;5045556;28;20045;-64
2022/08/26 07:41:00;;;;;;;20.45;6.00;;;;;;;;;;5049290;28;20037;-65
2022/08/26 07:43:27;;;;;;;30.17;7.22;;;;;;;;;;5048369;28;20108;-65
2022/08/26 07:45:54;;;;;;;34.10;8.15;;;;;;;;;;5049111;28;20037;-61
2022/08/26 07:48:21;;;;;;;20.75;6.18;;;;;;;;;;5052119;28;20486;-60
2022/08/26 07:50:47;;;;;;;152.80;15.55;;;;;;;;;;5048161;28;20076;-61
2022/08/26 07:53:16;;;;;;;38.67;8.23;;;;;;;;;;5048232;28;20136;-60
2022/08/26 07:55:44;;;;;;;24.20;7.03;;;;;;;;;;5048215;28;20036;-60
2022/08/26 07:58:11;;;;;;;40.67;7.82;;;;;;;;;;5048019;28;20393;-60
2022/08/26 08:00:38;;;;;;;26.45;6.78;;;;;;;;;;5051932;28;20041;-60
2022/08/26 08:03:04;;;;;;;137.77;14.70;;;;;;;;;;5050060;28;20401;-60
2022/08/26 08:05:31;;;;;;;51.17;8.73;;;;;;;;;;5047905;28;20032;-60
2022/08/26 08:08:00;;;;;;;26.25;6.78;;;;;;;;;;5048133;28;20041;-60
2022/08/26 08:10:46;;;;;;;36.13;8.30;;;;;;;;;;5048020;28;20056;-60
2022/08/26 08:13:14;;;;;;;22.95;6.93;;;;;;;;;;5048172;28;20133;-60
2022/08/26 08:15:41;;;;;;;41.97;8.55;;;;;;;;;;5050903;28;20045;-60
2022/08/26 08:18:08;;;;;;;33.00;7.32;;;;;;;;;;5049725;28;20506;-60
2022/08/26 08:20:41;;;;;;;31.50;7.18;;;;;;;;;;5048067;28;20037;-60
2022/08/26 08:23:19;;;;;;;25.08;5.78;;;;;;;;;;5047526;28;20413;-60
2022/08/26 08:25:47;;;;;;;31.80;7.35;;;;;;;;;;5047971;28;20044;-60
2022/08/26 08:28:14;;;;;;;20.50;6.95;;;;;;;;;;5048000;28;20092;-59
2022/08/26 08:30:41;;;;;;;42.05;8.05;;;;;;;;;;5050316;28;20133;-60
2022/08/26 08:33:07;;;;;;;79.82;9.07;;;;;;;;;;5049617;28;20063;-60
2022/08/26 08:35:38;;;;;;;34.55;6.50;;;;;;;;;;5047422;28;20037;-60
2022/08/26 08:38:04;;;;;;;41.95;8.10;;;;;;;;;;5047306;28;20083;-59
2022/08/26 08:40:32;;;;;;;12.32;4.63;;;;;;;;;;5048115;28;20043;-60
2022/08/26 08:43:02;;;;;;;31.27;6.97;;;;;;;;;;5047684;28;20569;-60
2022/08/26 08:45:34;;;;;;;38.60;7.75;;;;;;;;;;5047780;28;20084;-59
2022/08/26 08:48:04;;;;;;;61.78;9.02;;;;;;;;;;5036908;28;20138;-60
2022/08/26 08:50:38;;;;;;;20.60;5.53;;;;;;;;;;5040874;28;20125;-60
2022/08/26 08:53:27;;;;;;;28.58;7.55;;;;;;;;;;5043536;28;20037;-59
2022/08/26 08:55:59;;;;;;;67.05;11.13;;;;;;;;;;5005865;28;20522;-60
2022/08/26 08:58:38;;;;;;;29.92;7.22;;;;;;;;;;4998470;28;20134;-61
2022/08/26 09:01:07;;;;;;;18.48;6.30;;;;;;;;;;5012862;28;20128;-61
2022/08/26 09:03:50;;;;;;;43.92;8.35;;;;;;;;;;4990965;28;20077;-60
2022/08/26 09:06:17;;;;;;;26.38;6.80;;;;;;;;;;4992848;28;20129;-60
2022/08/26 09:08:45;;;;;;;43.45;7.95;;;;;;;;;;4997589;28;20062;-60
2022/08/26 09:11:16;;;;;;;18.80;5.65;;;;;;;;;;4998035;28;20039;-61
2022/08/26 09:13:45;;;;;;;25.20;6.10;;;;;;;;;;4995914;28;20133;-60
2022/08/26 09:16:18;;;;;;;22.35;5.82;;;;;;;;;;4997994;28;20061;-60
2022/08/26 09:18:51;;;;;;;41.53;7.03;;;;;;;;;;4999238;28;20046;-60
2022/08/26 09:21:19;;;;;;;55.20;8.88;;;;;;;;;;5016174;28;20041;-60
2022/08/26 09:23:49;;;;;;;30.20;7.18;;;;;;;;;;5016018;28;20050;-60
2022/08/26 09:26:21;;;;;;;29.38;6.40;;;;;;;;;;5018192;28;20037;-61
2022/08/26 09:28:55;;;;;;;48.30;8.27;;;;;;;;;;5018791;28;20045;-61
2022/08/26 09:31:30;;;;;;;86.57;9.90;;;;;;;;;;5008368;28;20049;-61
2022/08/26 09:34:11;;;;;;;34.85;8.02;;;;;;;;;;5039748;28;20062;-61
2022/08/26 09:36:52;;;;;;;35.42;7.45;;;;;;;;;;5047178;28;20064;-61
2022/08/26 09:39:22;;;;;;;26.92;6.53;;;;;;;;;;5047914;28;20041;-61
2022/08/26 09:42:09;;;;;;;48.83;8.43;;;;;;;;;;5045416;28;20045;-61
2022/08/26 09:44:55;;;;;;;31.05;6.07;;;;;;;;;;5048096;28;20115;-61
2022/08/26 09:47:25;;;;;;;55.03;9.85;;;;;;;;;;5046139;28;20043;-61
2022/08/26 09:50:22;;;;;;;19.48;5.72;;;;;;;;;;5046343;28;20480;-61
2022/08/26 09:53:03;;;;;;;31.20;7.07;;;;;;;;;;5043781;28;20044;-61
2022/08/26 09:55:36;;;;;;;69.40;8.32;;;;;;;;;;5035954;28;20493;-61
2022/08/26 09:58:02;;;;;;;27.00;6.20;;;;;;;;;;5035958;28;20404;-61
2022/08/26 10:00:36;;;;;;;33.38;7.32;;;;;;;;;;5047093;28;20064;-61
2022/08/26 10:03:11;;;;;;;32.50;6.65;;;;;;;;;;5047308;28;20127;-61
2022/08/26 10:05:42;;;;;;;33.83;6.07;;;;;;;;;;5046717;28;20124;-61
2022/08/26 10:08:27;;;;;;;54.65;8.57;;;;;;;;;;5045719;28;20033;-60
2022/08/26 10:10:55;;;;;;;224.48;20.25;;;;;;;;;;5043265;28;20152;-61
2022/08/26 10:13:24;;;;;;;91.20;11.60;;;;;;;;;;5045942;28;20045;-61
2022/08/26 10:15:59;;;;;;;41.95;7.43;;;;;;;;;;5040231;28;20478;-60
2022/08/26 10:18:25;;;;;;;;;;;;;;;;;;5050585;28;20052;-60
2022/08/26 10:21:14;;;;;;;60.72;9.23;;;;;;;;;;5046161;28;19925;-61
2022/08/26 10:23:48;;;;;;;27.52;6.63;;;;;;;;;;5045351;28;20128;-61
2022/08/26 10:26:34;;;;;;;273.17;25.90;;;;;;;;;;5043794;28;20045;-60
2022/08/26 10:29:07;;;;;;;21.77;5.75;;;;;;;;;;5045790;28;20056;-60
2022/08/26 10:31:36;;;;;;;27.02;6.18;;;;;;;;;;5046423;28;20489;-61
2022/08/26 10:34:07;;;;;;;35.03;6.68;;;;;;;;;;5045759;28;20117;-60
2022/08/26 10:36:49;;;;;;;17.70;5.35;;;;;;;;;;5050130;28;20119;-60
2022/08/26 10:39:36;;;;;;;27.73;5.73;;;;;;;;;;5046822;28;20148;-60
2022/08/26 10:42:06;;;;;;;38.13;6.45;;;;;;;;;;5044421;28;20120;-61
2022/08/26 10:44:36;;;;;;;25.20;5.70;;;;;;;;;;5044370;28;20120;-60
2022/08/26 10:47:18;;;;;;;23.20;5.72;;;;;;;;;;5043787;28;20033;-60
2022/08/26 10:49:46;;;;;;;26.27;6.15;;;;;;;;;;5045933;28;20064;-60
2022/08/26 10:52:17;;;;;;;18.40;5.35;;;;;;;;;;5036341;28;20459;-60
2022/08/26 10:54:43;;;;;;;45.38;7.70;;;;;;;;;;5047986;28;20045;-60
2022/08/26 10:57:29;;;;;;;23.42;6.68;;;;;;;;;;5048002;28;20723;-61
2022/08/26 10:59:55;;;;;;;21.33;6.18;;;;;;;;;;5045847;28;20405;-61
2022/08/26 11:02:31;;;;;;;28.48;6.45;;;;;;;;;;5045151;28;20107;-60
2022/08/26 11:05:08;;;;;;;34.50;7.57;;;;;;;;;;5045998;28;20136;-60
2022/08/26 11:07:43;;;;;;;33.85;6.90;;;;;;;;;;5045718;28;20095;-60
2022/08/26 11:10:16;;;;;;;20.60;5.57;;;;;;;;;;5037051;28;20069;-61
2022/08/26 11:12:44;;;;;;;40.28;7.45;;;;;;;;;;5047894;28;20079;-61
2022/08/26 11:15:20;;;;;;;23.20;6.63;;;;;;;;;;5048590;28;20103;-60
2022/08/26 11:17:50;;;;;;;37.88;7.13;;;;;;;;;;5044624;28;20377;-61
2022/08/26 11:20:29;;;;;;;47.33;8.70;;;;;;;;;;5044414;28;20073;-60
2022/08/26 11:23:16;;;;;;;42.25;7.70;;;;;;;;;;5045076;28;20115;-60
2022/08/26 11:25:55;;;;;;;26.00;6.68;;;;;;;;;;5048753;28;20121;-61
2022/08/26 11:28:32;;;;;;;69.03;9.10;;;;;;;;;;5035230;28;20465;-60
2022/08/26 11:30:59;;;;;;;29.60;6.60;;;;;;;;;;5050018;28;20376;-61
2022/08/26 11:33:44;;;;;;;17.63;5.05;;;;;;;;;;5053023;28;20095;-61
2022/08/26 11:36:27;;;;;;;22.90;6.35;;;;;;;;;;5050811;28;20064;-61
2022/08/26 11:38:53;;;;;;;36.38;7.45;;;;;;;;;;5048084;28;20128;-60
2022/08/26 11:41:20;;;;;;;40.67;6.47;;;;;;;;;;5048931;28;20040;-60
2022/08/26 11:43:49;;;;;;;20.52;5.40;;;;;;;;;;5046082;28;20405;-60
2022/08/26 11:46:22;;;;;;;26.33;6.28;;;;;;;;;;5035575;28;20395;-60
2022/08/26 11:48:50;;;;;;;28.20;6.88;;;;;;;;;;5036177;28;20049;-61
2022/08/26 11:51:17;;;;;;;44.95;7.43;;;;;;;;;;5051383;28;20053;-61
2022/08/26 11:53:43;;;;;;;62.63;9.30;;;;;;;;;;5048405;28;20045;-60
2022/08/26 11:56:27;;;;;;;34.55;6.68;;;;;;;;;;5048383;28;20494;-60
2022/08/26 11:58:58;;;;;;;48.05;7.53;;;;;;;;;;5047907;28;20049;-60
2022/08/26 12:01:29;;;;;;;20.38;5.50;;;;;;;;;;5048446;28;20416;-61
2022/08/26 12:03:57;;;;;;;28.58;7.07;;;;;;;;;;5049032;28;20081;-60
2022/08/26 12:06:36;;;;;;;53.65;7.70;;;;;;;;;;5043921;28;20041;-60
2022/08/26 12:09:13;;;;;;;56.58;7.43;;;;;;;;;;5052290;28;20378;-60
2022/08/26 12:11:40;;;;;;;43.47;8.07;;;;;;;;;;5047757;28;20029;-61
2022/08/26 12:14:16;;;;;;;21.95;7.00;;;;;;;;;;5044361;28;20044;-60
2022/08/26 12:16:42;;;;;;;30.30;6.28;;;;;;;;;;5037353;28;20072;-61
2022/08/26 12:19:30;;;;;;;29.00;6.53;;;;;;;;;;5046477;28;20049;-61
2022/08/26 12:22:16;;;;;;;36.83;7.30;;;;;;;;;;5048350;28;20478;-61
2022/08/26 12:24:54;;;;;;;47.17;7.80;;;;;;;;;;5047348;28;20525;-61
2022/08/26 12:27:22;;;;;;;104.72;13.30;;;;;;;;;;5050757;28;20048;-60
2022/08/26 12:30:07;;;;;;;24.73;5.93;;;;;;;;;;5047584;28;20063;-61
2022/08/26 12:32:39;;;;;;;60.53;8.15;;;;;;;;;;5046852;28;20056;-61
2022/08/26 12:35:24;;;;;;;27.08;6.47;;;;;;;;;;5046735;28;20041;-60
2022/08/26 12:37:51;;;;;;;56.38;9.65;;;;;;;;;;5046755;28;20393;-61
2022/08/26 12:40:23;;;;;;;18.15;5.35;;;;;;;;;;5047951;28;20488;-60
2022/08/26 12:42:50;;;;;;;25.58;6.55;;;;;;;;;;5048783;28;20055;-60
2022/08/26 12:45:51;;;;;;;58.67;9.18;;;;;;;;;;5050212;28;20072;-60
2022/08/26 12:48:24;;;;;;;35.42;7.22;;;;;;;;;;4970766;28;20066;-61
2022/08/26 12:50:52;;;;;;;107.35;12.50;;;;;;;;;;4973861;28;20050;-61
2022/08/26 12:53:18;;;;;;;39.03;7.68;;;;;;;;;;4974001;28;20059;-61
2022/08/26 12:55:49;;;;;;;43.88;8.13;;;;;;;;;;4974439;28;20038;-60
2022/08/26 12:58:18;;;;;;;19.75;6.07;;;;;;;;;;4974048;28;20085;-61
2022/08/26 13:00:46;;;;;;;33.85;7.20;;;;;;;;;;4971416;28;20515;-61
2022/08/26 13:03:27;;;;;;;25.75;6.45;;;;;;;;;;4971908;28;20142;-61
2022/08/26 13:06:15;;;;;;;42.42;8.70;;;;;;;;;;4968418;28;20043;-60
2022/08/26 13:08:46;;;;;;;57.50;9.10;;;;;;;;;;4970695;28;20054;-60
2022/08/26 13:11:26;;;;;;;37.92;7.53;;;;;;;;;;4970998;28;20372;-60
2022/08/26 13:14:01;;;;;;;31.23;6.93;;;;;;;;;;4969976;28;20050;-61
2022/08/26 13:16:32;;;;;;;30.15;6.95;;;;;;;;;;4969422;28;20631;-61
2022/08/26 13:19:00;;;;;;;52.53;8.73;;;;;;;;;;4969203;28;20053;-60
2022/08/26 13:21:28;;;;;;;37.92;7.63;;;;;;;;;;4968084;28;20614;-61
2022/08/26 13:24:13;;;;;;;34.67;7.20;;;;;;;;;;5007167;28;20466;-60
2022/08/26 13:26:41;;;;;;;168.60;20.65;;;;;;;;;;5045657;28;20067;-60
2022/08/26 13:29:08;;;;;;;80.25;10.30;;;;;;;;;;5042492;28;20155;-60
2022/08/26 13:31:37;;;;;;;84.22;10.70;;;;;;;;;;5039249;28;20072;-61
2022/08/26 13:34:04;;;;;;;33.42;7.30;;;;;;;;;;5046507;28;20077;-61
2022/08/26 13:36:30;;;;;;;30.33;6.82;;;;;;;;;;5049564;28;20067;-60
2022/08/26 13:38:57;;;;;;;54.80;10.02;;;;;;;;;;5044851;28;20048;-60
2022/08/26 13:41:24;;;;;;;26.10;6.88;;;;;;;;;;5044460;28;20040;-60
2022/08/26 13:43:55;;;;;;;31.35;6.93;;;;;;;;;;5044985;28;20394;-61
2022/08/26 13:46:24;;;;;;;50.60;8.98;;;;;;;;;;5038639;28;20769;-60
2022/08/26 13:48:52;;;;;;;56.55;9.10;;;;;;;;;;5042440;28;20136;-60
2022/08/26 13:51:21;;;;;;;69.20;10.60;;;;;;;;;;5047916;28;20098;-60
2022/08/26 13:53:48;;;;;;;37.13;8.32;;;;;;;;;;5045715;28;20041;-60
2022/08/26 13:56:15;;;;;;;43.65;9.32;;;;;;;;;;5045082;28;20171;-61
2022/08/26 13:58:41;;;;;;;34.92;8.18;;;;;;;;;;5042249;28;20045;-60
2022/08/26 14:01:11;;;;;;;24.60;7.07;;;;;;;;;;5043786;28;20828;-61
2022/08/26 14:03:38;;;;;;;167.90;18.90;;;;;;;;;;5042262;28;20539;-60
2022/08/26 14:06:05;;;;;;;68.07;11.50;;;;;;;;;;5045739;28;20036;-60
2022/08/26 14:08:32;;;;;;;50.58;9.43;;;;;;;;;;5043768;28;20489;-62
2022/08/26 14:10:59;;;;;;;35.03;8.35;;;;;;;;;;5044501;28;20060;-60
2022/08/26 14:13:25;;;;;;;30.00;7.47;;;;;;;;;;5046908;28;20040;-60
2022/08/26 14:15:52;;;;;;;49.70;9.75;;;;;;;;;;5042012;28;20801;-60
2022/08/26 14:18:23;;;;;;;32.00;7.82;;;;;;;;;;5039784;28;20135;-61
2022/08/26 14:20:51;;;;;;;27.38;7.20;;;;;;;;;;5038594;28;20053;-60
2022/08/26 14:23:18;;;;;;;48.75;8.82;;;;;;;;;;5043460;28;20083;-60
2022/08/26 14:25:44;;;;;;;48.08;9.00;;;;;;;;;;5040022;28;20041;-60
2022/08/26 14:28:11;;;;;;;51.80;9.60;;;;;;;;;;5045364;28;20422;-61
2022/08/26 14:30:39;;;;;;;36.05;8.35;;;;;;;;;;5050360;28;20539;-61
2022/08/26 14:33:09;;;;;;;25.02;6.95;;;;;;;;;;5047049;28;20067;-61
2022/08/26 14:35:36;;;;;;;55.67;10.60;;;;;;;;;;5044482;28;20600;-60
2022/08/26 14:38:03;;;;;;;68.03;8.85;;;;;;;;;;5043372;28;20114;-61
2022/08/26 14:40:30;;;;;;;31.73;7.35;;;;;;;;;;5045924;28;20042;-60
2022/08/26 14:42:59;;;;;;;49.42;9.30;;;;;;;;;;5043259;28;20128;-60
2022/08/26 14:45:26;;;;;;;35.42;7.80;;;;;;;;;;5049985;28;20409;-60
2022/08/26 14:47:55;;;;;;;42.95;8.90;;;;;;;;;;5045496;28;20823;-60
2022/08/26 14:50:22;;;;;;;37.47;9.10;;;;;;;;;;5045459;28;20057;-61
2022/08/26 14:55:38;;;;;;;320.05;28.40;;;;;;;;;;5045848;28;20045;-61